Terminal Aerodrome Forecast
Issued by NWS Green Bay, WI

Home | Current Version | Previous Version | Graphics & Text | Print | Product List | Glossary On
Versions: 1 2 3 4 5 6 7 8 9 10 11 12 13 14 15 16 17 18 19 20 21 22 23 24 25 26 27 28 29
000
FTUS43 KGRB 151600 AAA
TAFGRB
TAF AMD
KGRB 151614Z 1516/1612 28010KT P6SM SCT045
      TEMPO 1517/1521 BKN040
     FM152300 26007KT P6SM SCT200
     FM160400 VRB03KT P6SM BKN140
     FM160900 12007KT P6SM OVC080=

USA.gov is the U.S. government's official web portal to all federal, state and local government web resources and services.